Time;durP1;ratioP1;P1;durP2;ratioP2;P2;SDS_P1;SDS_P2;PMS_P1;PMS_P2;Temp;Humidity;BMP_temperature;BMP_pressure;BME280_temperature;BME280_humidity;BME280_pressure;Samples;Min_cycle;Max_cycle;Signal;HPM_P1;HPM_P2
2023/04/28 00:01:22;;;;;;;2.05;1.70;;;13.40;99.90;;;;;;5060283;28;20383;-83
2023/04/28 00:03:48;;;;;;;3.60;2.10;;;13.40;99.90;;;;;;5075991;28;20383;-83
2023/04/28 00:06:13;;;;;;;2.00;1.80;;;13.40;99.90;;;;;;5075616;28;20511;-83
2023/04/28 00:08:40;;;;;;;2.63;1.77;;;13.50;99.90;;;;;;5057402;28;20391;-83
2023/04/28 00:11:09;;;;;;;3.80;1.60;;;13.50;99.90;;;;;;5075497;28;20403;-82
2023/04/28 00:13:35;;;;;;;4.13;1.80;;;13.50;99.90;;;;;;5076696;28;20398;-83
2023/04/28 00:16:01;;;;;;;2.67;1.60;;;13.50;99.90;;;;;;5056533;28;20399;-83
2023/04/28 00:18:27;;;;;;;2.47;1.70;;;13.50;99.90;;;;;;5075655;28;20438;-82
2023/04/28 00:20:54;;;;;;;2.50;1.80;;;13.50;99.90;;;;;;5058276;28;20411;-82
2023/04/28 00:23:19;;;;;;;2.70;1.70;;;13.50;99.90;;;;;;5068583;28;20382;-82
2023/04/28 00:25:50;;;;;;;2.00;1.70;;;13.60;99.90;;;;;;5078414;28;20416;-83
2023/04/28 00:28:16;;;;;;;1.80;1.60;;;13.50;99.90;;;;;;5095521;28;20390;-83
2023/04/28 00:30:41;;;;;;;2.40;1.70;;;13.50;99.90;;;;;;5096718;28;20880;-83
2023/04/28 00:33:07;;;;;;;2.00;1.90;;;13.40;99.90;;;;;;5080538;28;20378;-82
2023/04/28 00:35:32;;;;;;;3.00;2.00;;;13.40;99.90;;;;;;5079736;28;20382;-82
2023/04/28 00:37:58;;;;;;;2.50;1.60;;;13.50;99.90;;;;;;5098489;28;20374;-83
2023/04/28 00:40:32;;;;;;;1.70;1.60;;;13.50;99.90;;;;;;5097987;28;20381;-83
2023/04/28 00:42:58;;;;;;;4.22;1.80;;;13.40;99.90;;;;;;5098194;28;20381;-83
2023/04/28 00:45:23;;;;;;;2.60;1.57;;;13.40;99.90;;;;;;5082776;28;20378;-83
2023/04/28 00:47:49;;;;;;;1.80;1.70;;;13.50;99.90;;;;;;5079317;28;20385;-83
2023/04/28 00:50:15;;;;;;;2.70;1.73;;;13.40;99.90;;;;;;5071007;28;20441;-82
2023/04/28 00:52:42;;;;;;;2.22;2.00;;;13.30;99.90;;;;;;5075323;28;20824;-82
2023/04/28 00:55:08;;;;;;;2.03;1.85;;;13.30;99.90;;;;;;5077207;28;20375;-82
2023/04/28 00:57:34;;;;;;;2.47;1.73;;;13.30;99.90;;;;;;5077427;28;20375;-82
2023/04/28 01:00:01;;;;;;;1.85;1.75;;;13.30;99.90;;;;;;5077710;28;20384;-83
2023/04/28 01:02:28;;;;;;;1.70;1.60;;;13.30;99.90;;;;;;5091064;28;20382;-82
2023/04/28 01:04:56;;;;;;;3.58;1.65;;;13.30;99.90;;;;;;5089555;28;20947;-82
2023/04/28 01:07:21;;;;;;;1.60;1.50;;;13.30;99.90;;;;;;5098616;28;20876;-82
2023/04/28 01:09:47;;;;;;;3.10;1.83;;;13.30;99.90;;;;;;5079619;28;20397;-82
2023/04/28 01:12:12;;;;;;;1.93;1.83;;;13.40;99.90;;;;;;5098362;28;20458;-83
2023/04/28 01:14:38;;;;;;;1.70;1.60;;;13.40;99.90;;;;;;5097979;28;20409;-82
2023/04/28 01:17:04;;;;;;;2.40;1.60;;;13.40;99.90;;;;;;5079476;28;20443;-82
2023/04/28 01:19:30;;;;;;;2.07;1.87;;;13.30;99.90;;;;;;5080193;28;20933;-83
2023/04/28 01:21:55;;;;;;;2.00;1.90;;;13.20;99.90;;;;;;5099206;28;20378;-83
2023/04/28 01:24:21;;;;;;;1.88;1.77;;;13.10;99.90;;;;;;5079998;28;20433;-82
2023/04/28 01:26:46;;;;;;;2.13;1.93;;;12.90;99.90;;;;;;5079689;28;20943;-83
2023/04/28 01:29:12;;;;;;;2.40;1.87;;;12.80;99.90;;;;;;5079495;28;20417;-83
2023/04/28 01:31:38;;;;;;;2.20;2.00;;;12.70;99.90;;;;;;5098920;28;20382;-83
2023/04/28 01:34:03;;;;;;;2.10;2.00;;;12.80;99.90;;;;;;5080322;28;20382;-83
2023/04/28 01:36:29;;;;;;;2.70;2.20;;;12.60;99.90;;;;;;5079285;28;20402;-83
2023/04/28 01:38:55;;;;;;;2.43;2.23;;;12.50;99.90;;;;;;5081692;28;20487;-83
2023/04/28 01:41:21;;;;;;;2.50;2.30;;;12.30;99.90;;;;;;5079864;28;20476;-83
2023/04/28 01:43:46;;;;;;;2.83;2.40;;;12.50;99.90;;;;;;5100231;28;20935;-83
2023/04/28 01:46:12;;;;;;;3.63;2.35;;;12.40;99.90;;;;;;5081393;28;20424;-83
2023/04/28 01:48:37;;;;;;;2.95;2.28;;;12.30;99.90;;;;;;5099628;28;20405;-83
2023/04/28 01:51:03;;;;;;;2.50;2.30;;;12.30;99.90;;;;;;5073495;28;20398;-83
2023/04/28 01:53:29;;;;;;;2.57;2.33;;;12.20;99.90;;;;;;5100865;28;20459;-84
2023/04/28 01:55:55;;;;;;;4.50;2.40;;;12.10;99.90;;;;;;5080649;28;20382;-84
2023/04/28 01:58:20;;;;;;;4.60;2.50;;;12.10;99.90;;;;;;5068908;28;20386;-84
2023/04/28 02:00:46;;;;;;;5.00;3.00;;;12.00;99.90;;;;;;5082221;28;20430;-84
2023/04/28 02:03:12;;;;;;;4.03;3.00;;;12.10;99.90;;;;;;5062997;28;20413;-83
2023/04/28 02:05:38;;;;;;;3.97;3.40;;;12.10;99.90;;;;;;5060463;28;20399;-83
2023/04/28 02:08:03;;;;;;;4.23;3.00;;;12.00;99.90;;;;;;5058646;28;20785;-83
2023/04/28 02:10:29;;;;;;;3.50;2.70;;;11.90;99.90;;;;;;5057719;28;20388;-82
2023/04/28 02:12:54;;;;;;;4.77;3.63;;;11.90;99.90;;;;;;5057515;28;20396;-82
2023/04/28 02:15:20;;;;;;;4.40;3.97;;;11.90;99.90;;;;;;5075457;28;20443;-82
2023/04/28 02:17:46;;;;;;;5.00;3.90;;;11.90;99.90;;;;;;5077020;28;20436;-85
2023/04/28 02:20:13;;;;;;;5.00;4.20;;;12.00;99.90;;;;;;5078417;28;20403;-84
2023/04/28 02:22:39;;;;;;;4.07;3.67;;;12.10;99.90;;;;;;5076330;28;20407;-83
2023/04/28 02:25:04;;;;;;;5.00;3.30;;;12.10;99.90;;;;;;5056549;28;20477;-82
2023/04/28 02:27:30;;;;;;;5.03;3.42;;;12.10;99.90;;;;;;5074686;28;20807;-83
2023/04/28 02:29:56;;;;;;;3.70;3.40;;;12.10;99.90;;;;;;5058473;28;20427;-83
2023/04/28 02:32:21;;;;;;;3.90;3.50;;;12.00;99.90;;;;;;5076122;28;20383;-82
2023/04/28 02:34:53;;;;;;;3.57;3.27;;;12.00;99.90;;;;;;5076487;28;20388;-83
2023/04/28 02:37:18;;;;;;;3.40;3.10;;;12.00;99.90;;;;;;5064742;28;20383;-83
2023/04/28 02:39:44;;;;;;;4.80;3.20;;;12.00;99.90;;;;;;5086240;28;20384;-83
2023/04/28 02:42:09;;;;;;;4.00;3.00;;;12.00;99.90;;;;;;5075016;28;20388;-82
2023/04/28 02:44:35;;;;;;;5.10;3.20;;;12.00;99.90;;;;;;5074262;28;20874;-82
2023/04/28 02:47:00;;;;;;;4.60;3.00;;;11.90;99.90;;;;;;5060483;28;20394;-82
2023/04/28 02:49:26;;;;;;;7.28;3.70;;;11.90;99.90;;;;;;5088284;28;20406;-83
2023/04/28 02:51:51;;;;;;;5.17;3.13;;;11.90;99.90;;;;;;5068115;28;20401;-82
2023/04/28 02:54:26;;;;;;;3.60;3.30;;;11.90;99.90;;;;;;5085393;28;20411;-82
2023/04/28 02:56:52;;;;;;;3.83;3.30;;;11.90;99.90;;;;;;5085331;28;20405;-82
2023/04/28 02:59:18;;;;;;;4.25;3.28;;;11.80;99.90;;;;;;5075107;28;20391;-82
2023/04/28 03:01:43;;;;;;;4.93;3.50;;;11.90;99.90;;;;;;5055725;28;20925;-81
2023/04/28 03:04:09;;;;;;;3.90;3.40;;;11.90;99.90;;;;;;5055487;28;20380;-82
2023/04/28 03:06:34;;;;;;;4.63;3.50;;;11.90;99.90;;;;;;5084723;28;20389;-82
2023/04/28 03:09:00;;;;;;;4.87;3.90;;;12.00;99.90;;;;;;5066915;28;20486;-81
2023/04/28 03:11:25;;;;;;;6.32;3.70;;;12.00;99.90;;;;;;5093563;28;20382;-82
2023/04/28 03:13:51;;;;;;;6.13;3.90;;;11.90;99.90;;;;;;5076257;28;20381;-82
2023/04/28 03:16:16;;;;;;;6.90;3.87;;;11.80;99.90;;;;;;5103801;28;20378;-81
2023/04/28 03:18:42;;;;;;;5.97;3.75;;;11.90;99.90;;;;;;5102398;28;20872;-81
2023/04/28 03:21:07;;;;;;;6.30;4.17;;;11.90;99.90;;;;;;5082550;28;20390;-81
2023/04/28 03:23:33;;;;;;;4.03;3.63;;;11.90;99.90;;;;;;5083547;28;20477;-80
2023/04/28 03:25:58;;;;;;;5.32;4.05;;;11.90;99.90;;;;;;5084291;28;20389;-81
2023/04/28 03:28:24;;;;;;;4.80;4.40;;;12.00;99.90;;;;;;5104973;28;20408;-81
2023/04/28 03:30:49;;;;;;;4.73;4.23;;;11.90;99.90;;;;;;5104932;28;20409;-80
2023/04/28 03:33:15;;;;;;;5.30;4.10;;;12.00;99.90;;;;;;5097593;28;20394;-81
2023/04/28 03:35:40;;;;;;;6.60;4.30;;;12.00;99.90;;;;;;5087541;28;20388;-81
2023/04/28 03:38:06;;;;;;;4.00;3.70;;;12.00;99.90;;;;;;5104520;28;20898;-81
2023/04/28 03:40:31;;;;;;;5.65;4.70;;;12.00;99.90;;;;;;5107853;28;20374;-80
2023/04/28 03:42:58;;;;;;;5.80;4.57;;;12.00;99.90;;;;;;5111881;28;20378;-81
2023/04/28 03:45:23;;;;;;;4.32;3.92;;;12.10;99.90;;;;;;5089851;28;20465;-81
2023/04/28 03:47:49;;;;;;;5.22;4.65;;;12.00;99.90;;;;;;5107322;28;20378;-82
2023/04/28 03:50:14;;;;;;;5.73;5.10;;;12.00;99.90;;;;;;5106609;28;20811;-81
2023/04/28 03:52:40;;;;;;;7.30;4.80;;;12.10;99.90;;;;;;5105324;28;20393;-81
2023/04/28 03:55:06;;;;;;;7.60;4.88;;;12.00;99.90;;;;;;5068418;28;20380;-81
2023/04/28 03:57:31;;;;;;;4.68;4.22;;;12.00;99.90;;;;;;5081428;28;20380;-80
2023/04/28 03:59:58;;;;;;;6.70;4.90;;;12.10;99.90;;;;;;5084058;28;20395;-80
2023/04/28 04:02:23;;;;;;;5.35;4.38;;;12.10;99.90;;;;;;5065733;28;20399;-80
2023/04/28 04:04:49;;;;;;;4.70;4.20;;;12.10;99.90;;;;;;5091691;28;20385;-79
2023/04/28 04:07:14;;;;;;;5.40;4.90;;;12.10;99.90;;;;;;5092405;28;20383;-79
2023/04/28 04:09:40;;;;;;;5.10;4.50;;;12.10;99.90;;;;;;5097232;28;20391;-80
2023/04/28 04:12:06;;;;;;;5.97;4.40;;;12.10;99.90;;;;;;5079515;28;20851;-82
2023/04/28 04:14:32;;;;;;;4.80;4.40;;;12.20;99.90;;;;;;5091748;28;20397;-81
2023/04/28 04:16:57;;;;;;;5.60;5.00;;;12.20;99.90;;;;;;5072775;28;20415;-81
2023/04/28 04:19:25;;;;;;;4.70;4.20;;;12.20;99.90;;;;;;5072599;28;20396;-80
2023/04/28 04:21:51;;;;;;;5.50;4.60;;;12.10;99.90;;;;;;5072321;28;20436;-80
2023/04/28 04:24:16;;;;;;;5.30;4.80;;;12.10;99.90;;;;;;5096294;28;20387;-82
2023/04/28 04:26:42;;;;;;;5.00;4.60;;;12.10;99.90;;;;;;5090551;28;20383;-81
2023/04/28 04:29:07;;;;;;;4.83;4.43;;;12.20;99.90;;;;;;5071963;28;20444;-80
2023/04/28 04:31:33;;;;;;;5.75;3.50;;;12.40;99.90;;;;;;5072876;28;20388;-81
2023/04/28 04:33:59;;;;;;;4.57;2.97;;;12.60;99.90;;;;;;5110214;28;20390;-81
2023/04/28 04:36:25;;;;;;;3.20;3.00;;;13.20;99.90;;;;;;5101024;28;20382;-80
2023/04/28 04:38:50;;;;;;;2.80;2.60;;;13.20;99.90;;;;;;5109911;28;20414;-80
2023/04/28 04:41:19;;;;;;;3.87;2.77;;;13.40;99.90;;;;;;5109473;28;20792;-81
2023/04/28 04:43:45;;;;;;;2.92;2.50;;;13.60;99.90;;;;;;5090221;28;20386;-81
2023/04/28 04:46:10;;;;;;;3.97;2.90;;;13.60;99.90;;;;;;5110949;28;20431;-81
2023/04/28 04:48:36;;;;;;;3.50;3.07;;;13.30;99.90;;;;;;5090862;28;20423;-80
2023/04/28 04:51:01;;;;;;;4.40;2.60;;;13.50;99.90;;;;;;5083798;28;20390;-82
2023/04/28 04:53:27;;;;;;;3.00;2.80;;;13.60;99.90;;;;;;5110060;28;20449;-82
2023/04/28 04:55:52;;;;;;;2.65;2.35;;;13.60;99.90;;;;;;5109869;28;20390;-82
2023/04/28 04:58:18;;;;;;;3.70;2.80;;;13.50;99.90;;;;;;5097414;28;20376;-83
2023/04/28 05:00:44;;;;;;;3.00;2.70;;;13.70;99.90;;;;;;5069279;28;20404;-81
2023/04/28 05:03:10;;;;;;;3.50;2.58;;;13.80;99.90;;;;;;5090206;28;20388;-81
2023/04/28 05:05:36;;;;;;;3.93;3.30;;;13.70;99.90;;;;;;5068978;28;20402;-82
2023/04/28 05:08:02;;;;;;;3.70;3.30;;;13.70;99.90;;;;;;5098482;28;20477;-81
2023/04/28 05:10:28;;;;;;;3.47;3.17;;;13.60;99.90;;;;;;5077705;28;20394;-81
2023/04/28 05:12:53;;;;;;;3.40;2.77;;;13.60;99.90;;;;;;5108715;28;20385;-81
2023/04/28 05:15:19;;;;;;;3.73;3.10;;;13.70;99.90;;;;;;5105408;28;20426;-81
2023/04/28 05:17:44;;;;;;;3.00;2.80;;;13.80;99.90;;;;;;5105809;28;20389;-81
2023/04/28 05:20:10;;;;;;;3.90;3.50;;;13.90;99.90;;;;;;5092718;28;20387;-81
2023/04/28 05:22:36;;;;;;;3.10;2.80;;;13.90;99.90;;;;;;5092459;28;20390;-81
2023/04/28 05:25:01;;;;;;;3.20;2.90;;;14.00;99.90;;;;;;5109034;28;20417;-80
2023/04/28 05:27:27;;;;;;;3.00;2.80;;;14.00;99.90;;;;;;5090532;28;20394;-81
2023/04/28 05:29:52;;;;;;;3.00;2.70;;;14.00;99.90;;;;;;5105431;28;20390;-81
2023/04/28 05:32:18;;;;;;;3.72;3.40;;;14.00;99.90;;;;;;5087210;28;20417;-82
2023/04/28 05:34:43;;;;;;;3.03;2.73;;;14.00;99.90;;;;;;5088999;28;20378;-82
2023/04/28 05:37:09;;;;;;;3.30;2.70;;;14.10;99.90;;;;;;5088435;28;20382;-81
2023/04/28 05:39:34;;;;;;;3.20;2.60;;;14.10;99.90;;;;;;5090244;28;20386;-82
2023/04/28 05:42:00;;;;;;;2.88;2.67;;;14.10;99.90;;;;;;5081788;28;20398;-81
2023/04/28 05:44:25;;;;;;;2.70;2.50;;;14.00;99.90;;;;;;5074162;28;20387;-82
2023/04/28 05:46:51;;;;;;;3.70;2.80;;;14.00;99.90;;;;;;5101440;28;20428;-81
2023/04/28 05:49:16;;;;;;;3.13;2.83;;;13.90;99.90;;;;;;5097364;28;20508;-81
2023/04/28 05:51:43;;;;;;;3.30;3.00;;;14.00;99.90;;;;;;5102309;28;20884;-81
2023/04/28 05:54:08;;;;;;;4.00;3.00;;;13.90;99.90;;;;;;5092860;28;20949;-81
2023/04/28 05:56:34;;;;;;;3.00;2.80;;;14.00;99.90;;;;;;5090571;28;20421;-82
2023/04/28 05:59:03;;;;;;;3.70;3.40;;;13.90;99.90;;;;;;5079491;28;20416;-83
2023/04/28 06:01:31;;;;;;;3.20;3.00;;;13.80;99.90;;;;;;5075541;28;20420;-82
2023/04/28 06:03:57;;;;;;;4.40;3.60;;;13.80;99.90;;;;;;5108142;28;20392;-82
2023/04/28 06:06:26;;;;;;;4.28;3.30;;;13.80;99.90;;;;;;5079661;28;20421;-83
2023/04/28 06:08:52;;;;;;;5.18;3.33;;;13.90;99.90;;;;;;5101938;28;20410;-83
2023/04/28 06:11:21;;;;;;;3.75;3.40;;;13.90;99.90;;;;;;5071629;28;20396;-82
2023/04/28 06:13:47;;;;;;;3.60;3.30;;;13.90;99.90;;;;;;5105035;28;20388;-82
2023/04/28 06:16:12;;;;;;;4.53;3.58;;;13.90;99.90;;;;;;5095327;28;20401;-82
2023/04/28 06:18:38;;;;;;;3.30;3.10;;;13.80;99.90;;;;;;5098930;28;20384;-82
2023/04/28 06:21:03;;;;;;;3.93;3.53;;;13.80;99.90;;;;;;5093827;28;20390;-85
2023/04/28 06:23:29;;;;;;;3.90;3.50;;;13.90;99.90;;;;;;5077388;28;20391;-83
2023/04/28 06:25:55;;;;;;;3.53;3.22;;;13.80;99.90;;;;;;5096880;28;21257;-85
2023/04/28 06:28:20;;;;;;;3.40;3.20;;;13.80;99.90;;;;;;5072855;28;20904;-85
2023/04/28 06:30:46;;;;;;;3.60;3.30;;;13.80;99.90;;;;;;5097179;28;20810;-87
2023/04/28 06:33:11;;;;;;;3.60;3.30;;;13.70;99.90;;;;;;5084033;28;20384;-87
2023/04/28 06:35:38;;;;;;;4.30;3.90;;;13.70;99.90;;;;;;5068030;28;20390;-84
2023/04/28 06:38:05;;;;;;;5.88;3.80;;;13.70;99.90;;;;;;5076503;28;20747;-88
2023/04/28 06:40:31;;;;;;;3.63;3.33;;;13.70;99.90;;;;;;5065472;28;20388;-85
2023/04/28 06:42:56;;;;;;;4.93;4.10;;;13.60;99.90;;;;;;5074318;28;20395;-86
2023/04/28 06:45:22;;;;;;;4.60;4.00;;;13.70;99.90;;;;;;5052472;28;20380;-87
2023/04/28 06:47:48;;;;;;;5.07;4.07;;;13.60;99.90;;;;;;5072082;28;20935;-87
2023/04/28 06:50:13;;;;;;;4.87;4.17;;;13.50;99.90;;;;;;5054580;28;20396;-89
2023/04/28 06:52:39;;;;;;;4.65;4.15;;;13.50;99.90;;;;;;5054613;28;20422;-88
2023/04/28 06:55:06;;;;;;;5.18;4.68;;;13.50;99.90;;;;;;5055809;28;20387;-90
2023/04/28 06:57:32;;;;;;;4.25;3.88;;;13.50;99.90;;;;;;5073310;28;20376;-90
2023/04/28 06:59:57;;;;;;;4.80;3.80;;;13.40;99.90;;;;;;5055557;28;20420;-89
2023/04/28 07:02:23;;;;;;;6.07;3.80;;;13.40;99.90;;;;;;5058322;28;20763;-88
2023/04/28 07:04:48;;;;;;;5.20;3.90;;;13.30;99.90;;;;;;5092018;28;20393;-88
2023/04/28 07:07:14;;;;;;;5.38;4.25;;;13.30;99.90;;;;;;5072131;28;20527;-88
2023/04/28 07:09:39;;;;;;;4.87;4.20;;;13.20;99.90;;;;;;5070891;28;20402;-87
2023/04/28 07:12:05;;;;;;;4.50;4.10;;;13.20;99.90;;;;;;5064997;28;20405;-86
2023/04/28 07:14:31;;;;;;;4.35;4.00;;;13.20;99.90;;;;;;5085402;28;20396;-85
2023/04/28 07:16:57;;;;;;;5.13;4.10;;;13.00;99.90;;;;;;5067569;28;20830;-85
2023/04/28 07:19:22;;;;;;;4.30;4.00;;;13.20;99.90;;;;;;5099249;28;20394;-85
2023/04/28 07:21:48;;;;;;;4.93;4.53;;;13.20;99.90;;;;;;5075829;28;20391;-85
2023/04/28 07:24:13;;;;;;;4.50;4.10;;;13.20;99.90;;;;;;5105272;28;20382;-84
2023/04/28 07:26:39;;;;;;;4.07;3.70;;;13.20;99.90;;;;;;5102898;28;20376;-84
2023/04/28 07:29:05;;;;;;;4.10;3.80;;;13.20;99.90;;;;;;5098504;28;20430;-84
2023/04/28 07:31:30;;;;;;;4.03;3.70;;;13.30;99.90;;;;;;5082947;28;20399;-85
2023/04/28 07:33:56;;;;;;;3.80;3.40;;;13.30;99.90;;;;;;5091374;28;20420;-84
2023/04/28 07:36:21;;;;;;;4.00;3.60;;;13.50;99.90;;;;;;5079517;28;20392;-84
2023/04/28 07:38:47;;;;;;;5.70;3.80;;;13.50;99.90;;;;;;5095973;28;20450;-84
2023/04/28 07:41:12;;;;;;;3.90;3.60;;;13.40;99.90;;;;;;5074256;28;20413;-84
2023/04/28 07:43:39;;;;;;;3.87;3.47;;;13.50;99.90;;;;;;5093122;28;20397;-84
2023/04/28 07:46:06;;;;;;;5.10;3.50;;;13.60;99.90;;;;;;5086886;28;20471;-85
2023/04/28 07:48:31;;;;;;;3.35;3.05;;;13.60;99.90;;;;;;5067509;28;20408;-82
2023/04/28 07:50:57;;;;;;;3.33;3.03;;;13.70;99.90;;;;;;5089290;28;20395;-81
2023/04/28 07:53:22;;;;;;;3.80;3.10;;;13.70;99.90;;;;;;5073517;28;20387;-81
2023/04/28 07:55:48;;;;;;;4.10;3.70;;;13.80;99.90;;;;;;5092223;28;20930;-81
2023/04/28 07:58:13;;;;;;;3.97;3.53;;;13.80;99.90;;;;;;5085417;28;20385;-81
2023/04/28 08:00:39;;;;;;;3.50;3.20;;;13.80;99.90;;;;;;5088353;28;20394;-82
2023/04/28 08:03:04;;;;;;;3.55;3.25;;;13.90;99.90;;;;;;5068062;28;20397;-82
2023/04/28 08:05:31;;;;;;;3.30;3.00;;;13.80;99.90;;;;;;5088398;28;20750;-81
2023/04/28 08:07:57;;;;;;;4.10;2.92;;;13.90;99.90;;;;;;5085213;28;20378;-82
2023/04/28 08:10:25;;;;;;;3.90;2.97;;;13.90;99.90;;;;;;5066432;28;20403;-81
2023/04/28 08:12:51;;;;;;;6.30;3.17;;;13.90;99.90;;;;;;5083767;28;20412;-81
2023/04/28 08:15:16;;;;;;;3.10;2.80;;;13.90;99.90;;;;;;5087451;28;20398;-82
2023/04/28 08:17:42;;;;;;;2.97;2.67;;;14.00;99.90;;;;;;5066209;28;20386;-81
2023/04/28 08:20:08;;;;;;;3.38;3.08;;;14.00;99.90;;;;;;5070483;28;20390;-82
2023/04/28 08:22:34;;;;;;;3.67;3.33;;;14.00;99.90;;;;;;5086921;28;20453;-81
2023/04/28 08:24:59;;;;;;;3.30;3.00;;;14.10;99.90;;;;;;5060683;28;20406;-83
2023/04/28 08:27:25;;;;;;;3.30;3.00;;;14.10;99.90;;;;;;5067087;28;20395;-82
2023/04/28 08:29:51;;;;;;;2.88;2.67;;;14.10;99.90;;;;;;5088764;28;20427;-81
2023/04/28 08:32:17;;;;;;;3.72;2.80;;;14.10;99.90;;;;;;5086091;28;20386;-80
2023/04/28 08:34:43;;;;;;;3.88;2.80;;;14.20;99.90;;;;;;5093533;28;20382;-80
2023/04/28 08:37:08;;;;;;;3.10;2.83;;;14.10;99.90;;;;;;5091216;28;20929;-81
2023/04/28 08:39:34;;;;;;;4.30;3.10;;;14.20;99.90;;;;;;5084380;28;20393;-80
2023/04/28 08:42:03;;;;;;;3.23;2.93;;;14.10;99.90;;;;;;5102718;28;20399;-82
2023/04/28 08:44:35;;;;;;;3.95;2.90;;;14.10;99.90;;;;;;5098053;28;20382;-79
2023/04/28 08:47:03;;;;;;;3.03;2.83;;;14.00;99.90;;;;;;5100602;28;20473;-79
2023/04/28 08:49:34;;;;;;;3.50;3.20;;;14.00;99.90;;;;;;5092313;28;20397;-79
2023/04/28 08:52:00;;;;;;;4.30;3.17;;;14.00;99.90;;;;;;5077087;28;20417;-80
2023/04/28 08:54:30;;;;;;;3.38;3.08;;;13.90;99.90;;;;;;5098089;28;20374;-80
2023/04/28 08:56:56;;;;;;;3.55;2.70;;;13.90;99.90;;;;;;5061359;28;20463;-79
2023/04/28 08:59:22;;;;;;;2.95;2.65;;;13.90;99.90;;;;;;5066354;28;20384;-79
2023/04/28 09:01:49;;;;;;;2.65;2.45;;;13.90;99.90;;;;;;5079055;28;20456;-79
2023/04/28 09:04:16;;;;;;;2.80;2.60;;;14.00;99.90;;;;;;5077860;28;20437;-80
2023/04/28 09:06:42;;;;;;;3.97;2.20;;;14.10;99.90;;;;;;5062627;28;20392;-80
2023/04/28 09:09:37;;;;;;;2.60;2.40;;;14.10;99.90;;;;;;5063609;28;20408;-79
2023/04/28 09:12:03;;;;;;;2.40;2.20;;;14.20;99.90;;;;;;5064230;28;20763;-80
2023/04/28 09:14:34;;;;;;;2.40;2.20;;;14.20;99.90;;;;;;5084459;22;21194;-81
2023/04/28 09:17:01;;;;;;;4.40;2.55;;;14.30;99.90;;;;;;5093075;28;20382;-82
2023/04/28 09:19:36;;;;;;;2.60;2.40;;;14.20;99.90;;;;;;5095723;28;20374;-80
2023/04/28 09:22:04;;;;;;;3.20;2.72;;;14.30;99.90;;;;;;5094246;28;20466;-81
2023/04/28 09:24:30;;;;;;;3.03;2.50;;;14.40;99.90;;;;;;5096041;28;20389;-82
2023/04/28 09:26:56;;;;;;;2.60;2.40;;;14.40;99.90;;;;;;5095921;28;20867;-82
2023/04/28 09:29:22;;;;;;;2.65;2.45;;;14.50;99.90;;;;;;5095813;28;20459;-82
2023/04/28 09:31:48;;;;;;;2.65;2.45;;;14.60;99.90;;;;;;5098020;28;20466;-85
2023/04/28 09:34:14;;;;;;;2.50;2.23;;;14.50;99.90;;;;;;5103559;28;20472;-84
2023/04/28 09:36:40;;;;;;;2.70;2.17;;;14.50;99.90;;;;;;5102151;28;20401;-82
2023/04/28 09:39:05;;;;;;;2.70;2.50;;;14.50;99.90;;;;;;5100523;28;20542;-83
2023/04/28 09:41:44;;;;;;;2.53;2.00;;;14.50;99.90;;;;;;5095234;28;20828;-83
2023/04/28 09:44:14;;;;;;;2.83;2.45;;;14.60;99.90;;;;;;5098616;28;20374;-81
2023/04/28 09:46:40;;;;;;;2.60;2.40;;;14.60;99.90;;;;;;5110721;28;20382;-84
2023/04/28 09:49:06;;;;;;;2.40;2.20;;;14.60;99.90;;;;;;5095883;28;20394;-83
2023/04/28 09:51:31;;;;;;;3.30;2.53;;;14.60;99.90;;;;;;5094723;28;20385;-82
2023/04/28 09:54:01;;;;;;;3.42;3.13;;;14.60;99.90;;;;;;5096063;28;20377;-82
2023/04/28 09:56:28;;;;;;;3.15;2.67;;;14.80;99.90;;;;;;5096174;28;20378;-82
2023/04/28 09:58:58;;;;;;;3.00;2.80;;;14.80;99.90;;;;;;5095795;28;20394;-83
2023/04/28 10:01:26;;;;;;;2.97;2.78;;;14.90;99.90;;;;;;5093929;28;20386;-81
2023/04/28 10:03:52;;;;;;;3.38;3.08;;;14.90;99.90;;;;;;5093448;28;20436;-82
2023/04/28 10:06:18;;;;;;;3.55;3.25;;;15.00;99.90;;;;;;5093281;28;20406;-80
2023/04/28 10:08:47;;;;;;;3.10;2.90;;;15.00;99.90;;;;;;5094751;28;20876;-80
2023/04/28 10:11:16;;;;;;;3.70;2.60;;;15.00;99.90;;;;;;5094054;28;20451;-82
2023/04/28 10:13:42;;;;;;;2.90;2.70;;;14.90;99.90;;;;;;5095414;28;20410;-81
2023/04/28 10:16:09;;;;;;;3.15;2.70;;;15.00;99.90;;;;;;5094997;28;20422;-81
2023/04/28 10:18:36;;;;;;;4.03;2.80;;;14.90;99.90;;;;;;5093425;28;20827;-81
2023/04/28 10:21:03;;;;;;;2.80;2.50;;;14.90;99.90;;;;;;5094584;28;20447;-81
2023/04/28 10:23:46;;;;;;;4.95;2.70;;;15.00;99.90;;;;;;5093549;28;20386;-81
2023/04/28 10:26:14;;;;;;;2.95;2.60;;;15.10;99.90;;;;;;5094191;28;20418;-82
2023/04/28 10:28:47;;;;;;;2.90;2.70;;;15.10;99.90;;;;;;5092978;28;20398;-81
2023/04/28 10:31:14;;;;;;;3.20;2.90;;;15.10;99.90;;;;;;5092269;28;20390;-81
2023/04/28 10:33:42;;;;;;;2.80;2.60;;;15.30;99.90;;;;;;5094189;28;20404;-81
2023/04/28 10:36:08;;;;;;;3.30;2.70;;;15.40;99.90;;;;;;5094104;28;20421;-81
2023/04/28 10:38:35;;;;;;;4.15;2.60;;;15.40;99.90;;;;;;5095339;28;20402;-83
2023/04/28 10:41:01;;;;;;;3.00;2.00;;;15.40;99.90;;;;;;5094170;28;20378;-81
2023/04/28 10:43:38;;;;;;;2.40;2.20;;;15.50;99.90;;;;;;5094566;28;20389;-84
2023/04/28 10:46:10;;;;;;;2.80;2.60;;;15.50;99.90;;;;;;5094194;28;20748;-80
2023/04/28 10:48:48;;;;;;;2.70;2.40;;;15.50;99.90;;;;;;5092725;28;20398;-81
2023/04/28 10:51:13;;;;;;;2.03;1.92;;;15.60;99.90;;;;;;5094360;28;20878;-82
2023/04/28 10:53:44;;;;;;;2.33;1.80;;;15.60;99.90;;;;;;5093793;28;20397;-84
2023/04/28 10:56:11;;;;;;;3.80;2.30;;;15.70;99.90;;;;;;5093632;28;20876;-84
2023/04/28 10:58:41;;;;;;;2.60;1.80;;;16.00;99.90;;;;;;5080192;28;20398;-82
2023/04/28 11:01:19;;;;;;;1.70;1.60;;;16.10;99.90;;;;;;5073337;28;20463;-82
2023/04/28 11:03:45;;;;;;;1.60;1.50;;;16.20;99.90;;;;;;5072475;28;20445;-82
2023/04/28 11:06:25;;;;;;;1.77;1.30;;;16.40;99.90;;;;;;5074403;28;20928;-82
2023/04/28 11:08:51;;;;;;;1.30;1.20;;;16.70;99.90;;;;;;5075128;28;20396;-83
2023/04/28 11:11:19;;;;;;;1.42;1.33;;;16.70;99.90;;;;;;5082476;28;20884;-82
2023/04/28 11:13:46;;;;;;;1.50;1.40;;;16.90;99.90;;;;;;5090417;28;20383;-83
2023/04/28 11:16:20;;;;;;;1.70;1.40;;;16.80;99.90;;;;;;5092207;28;20388;-85
2023/04/28 11:19:03;;;;;;;1.50;1.40;;;16.90;99.90;;;;;;5076549;28;20434;-84
2023/04/28 11:21:29;;;;;;;1.50;1.40;;;17.00;99.90;;;;;;5077425;28;20388;-85
2023/04/28 11:23:56;;;;;;;1.98;1.40;;;17.10;99.90;;;;;;5076325;28;20383;-84
2023/04/28 11:26:22;;;;;;;2.28;1.10;;;17.30;99.90;;;;;;5078469;28;20391;-84
2023/04/28 11:28:56;;;;;;;1.48;1.17;;;17.30;99.90;;;;;;5094147;28;20422;-84
2023/04/28 11:31:24;;;;;;;1.00;0.90;;;17.30;99.90;;;;;;5078616;28;20392;-84
2023/04/28 11:34:05;;;;;;;1.10;1.00;;;17.40;99.90;;;;;;5093513;28;20912;-84
2023/04/28 11:36:36;;;;;;;1.20;1.10;;;17.20;99.90;;;;;;5077567;28;20384;-85
2023/04/28 11:39:07;;;;;;;1.30;1.20;;;17.40;99.90;;;;;;5077627;28;20462;-84
2023/04/28 11:41:40;;;;;;;1.40;1.20;;;17.40;99.90;;;;;;5079813;28;20394;-83
2023/04/28 11:44:14;;;;;;;1.50;1.35;;;17.80;99.90;;;;;;5078307;28;20880;-85
2023/04/28 11:46:59;;;;;;;1.48;1.25;;;17.50;99.90;;;;;;5078493;28;20395;-84
2023/04/28 11:49:45;;;;;;;1.50;0.80;;;17.70;99.90;;;;;;5076430;28;20755;-83
2023/04/28 11:52:11;;;;;;;1.40;0.90;;;17.60;99.90;;;;;;5077370;28;20379;-84
2023/04/28 11:54:37;;;;;;;1.80;0.90;;;17.80;99.90;;;;;;5075087;28;20372;-84
2023/04/28 11:57:03;;;;;;;1.00;0.90;;;18.30;99.90;;;;;;5091309;28;20801;-84
2023/04/28 11:59:33;;;;;;;1.20;0.80;;;18.60;99.90;;;;;;5075404;28;21045;-84
2023/04/28 12:02:06;;;;;;;1.30;0.90;;;18.80;99.90;;;;;;5084899;28;20394;-85
2023/04/28 12:04:43;;;;;;;1.00;0.90;;;18.80;99.90;;;;;;5086005;28;20400;-85
2023/04/28 12:07:10;;;;;;;1.67;1.05;;;18.90;99.90;;;;;;5089922;28;20417;-85
2023/04/28 12:09:38;;;;;;;1.30;1.00;;;19.20;99.90;;;;;;5087242;28;20398;-85
2023/04/28 12:12:09;;;;;;;1.00;0.90;;;18.80;99.90;;;;;;5117336;28;20413;-84
2023/04/28 12:15:06;;;;;;;1.10;1.00;;;19.20;99.90;;;;;;5101884;28;20423;-83
2023/04/28 12:17:37;;;;;;;1.00;0.80;;;19.70;99.90;;;;;;5087846;28;20386;-85
2023/04/28 12:20:25;;;;;;;1.67;0.80;;;20.30;99.90;;;;;;5105480;28;20468;-86
2023/04/28 12:22:50;;;;;;;0.80;0.70;;;20.40;99.90;;;;;;5090437;28;20396;-85
2023/04/28 12:25:18;;;;;;;1.20;1.10;;;19.70;99.90;;;;;;5091352;28;20387;-84
2023/04/28 12:28:03;;;;;;;0.95;0.90;;;19.00;99.90;;;;;;5083403;28;20482;-86
2023/04/28 12:30:31;;;;;;;1.40;1.08;;;19.50;99.90;;;;;;5083995;28;20463;-85
2023/04/28 12:32:57;;;;;;;1.58;1.20;;;19.60;99.90;;;;;;5098273;28;20386;-85
2023/04/28 12:35:25;;;;;;;2.90;1.10;;;19.70;99.90;;;;;;5093092;28;20789;-86
2023/04/28 12:37:52;;;;;;;1.10;1.00;;;19.70;99.90;;;;;;5089503;28;20776;-86
2023/04/28 12:40:17;;;;;;;1.20;1.10;;;19.80;99.90;;;;;;5087392;28;20383;-85
2023/04/28 12:42:43;;;;;;;1.40;1.20;;;19.80;99.90;;;;;;5109082;28;20388;-85
2023/04/28 12:45:09;;;;;;;1.30;1.20;;;19.50;99.90;;;;;;5112726;28;20433;-85
2023/04/28 12:47:35;;;;;;;1.77;1.23;;;19.50;99.90;;;;;;5113541;28;20714;-84